Time;durP1;ratioP1;P1;durP2;ratioP2;P2;SDS_P1;SDS_P2;PMS_P1;PMS_P2;Temp;Humidity;BMP_temperature;BMP_pressure;BME280_temperature;BME280_humidity;BME280_pressure;Samples;Min_cycle;Max_cycle;Signal;HPM_P1;HPM_P2
2021/12/12 00:01:49;;;;;;;21.75;9.25;;;1.50;99.90;;;;;;4921406;28;20039;-58
2021/12/12 00:04:17;;;;;;;21.23;8.38;;;1.50;99.90;;;;;;4909700;29;20043;-56
2021/12/12 00:06:51;;;;;;;21.20;7.80;;;1.50;99.90;;;;;;4960611;28;20110;-54
2021/12/12 00:09:39;;;;;;;28.20;10.95;;;1.50;99.90;;;;;;4948260;28;20414;-55
2021/12/12 00:12:13;;;;;;;46.53;13.98;;;1.50;99.90;;;;;;4961732;28;20050;-52
2021/12/12 00:14:39;;;;;;;27.77;11.30;;;1.50;99.90;;;;;;4953274;28;20034;-57
2021/12/12 00:17:08;;;;;;;28.73;10.43;;;1.50;99.90;;;;;;4953425;29;20050;-57
2021/12/12 00:19:35;;;;;;;29.42;10.75;;;1.50;99.90;;;;;;4948400;29;20054;-57
2021/12/12 00:22:04;;;;;;;23.63;9.27;;;1.60;99.90;;;;;;4942164;28;20039;-58
2021/12/12 00:24:30;;;;;;;18.23;9.23;;;1.60;99.90;;;;;;4948763;29;20408;-56
2021/12/12 00:26:58;;;;;;;18.13;8.13;;;1.60;99.90;;;;;;4949941;29;20027;-58
2021/12/12 00:29:25;;;;;;;19.75;6.90;;;1.60;99.90;;;;;;4947661;29;20027;-58
2021/12/12 00:31:56;;;;;;;16.88;7.07;;;1.70;99.90;;;;;;4922582;28;20027;-57
2021/12/12 00:34:21;;;;;;;19.10;7.05;;;1.70;99.90;;;;;;4949501;29;20126;-54
2021/12/12 00:36:47;;;;;;;21.20;6.80;;;1.70;99.90;;;;;;4949833;29;20110;-57
2021/12/12 00:39:20;;;;;;;16.80;7.35;;;1.70;99.90;;;;;;4950155;29;20126;-58
2021/12/12 00:41:53;;;;;;;21.45;8.40;;;1.70;99.90;;;;;;4950153;28;20030;-58
2021/12/12 00:44:20;;;;;;;22.00;6.80;;;1.70;99.90;;;;;;4949974;29;20031;-57
2021/12/12 00:46:46;;;;;;;22.98;6.03;;;1.70;99.90;;;;;;4949025;29;20027;-57
2021/12/12 00:49:14;;;;;;;19.90;8.40;;;1.70;99.90;;;;;;4933253;29;20031;-52
2021/12/12 00:51:43;;;;;;;19.02;7.88;;;1.70;99.90;;;;;;4952735;29;20512;-56
2021/12/12 00:54:11;;;;;;;19.92;8.20;;;1.70;99.90;;;;;;4951813;28;20043;-57
2021/12/12 00:56:37;;;;;;;23.58;7.97;;;1.70;99.90;;;;;;4952766;29;20110;-56
2021/12/12 00:59:05;;;;;;;22.42;6.97;;;1.70;99.90;;;;;;4952123;29;20035;-57
2021/12/12 01:01:35;;;;;;;17.60;7.05;;;1.80;99.90;;;;;;4952173;28;20485;-58
2021/12/12 01:04:13;;;;;;;16.33;6.82;;;1.80;99.90;;;;;;4951808;29;20035;-57
2021/12/12 01:06:40;;;;;;;15.00;5.78;;;1.80;99.90;;;;;;4951896;29;20070;-58
2021/12/12 01:09:10;;;;;;;22.10;7.80;;;1.80;99.90;;;;;;4952460;29;20033;-57
2021/12/12 01:11:41;;;;;;;16.42;6.63;;;1.80;99.90;;;;;;4952681;29;20035;-57
2021/12/12 01:14:10;;;;;;;18.95;6.47;;;1.90;99.90;;;;;;4952723;29;20078;-59
2021/12/12 01:16:59;;;;;;;23.83;6.28;;;1.90;99.90;;;;;;4952519;29;20031;-57
2021/12/12 01:19:50;;;;;;;22.77;7.28;;;1.90;99.90;;;;;;4951337;29;20039;-57
2021/12/12 01:22:23;;;;;;;16.80;6.55;;;1.90;99.90;;;;;;4952683;29;20020;-56
2021/12/12 01:24:51;;;;;;;17.08;7.50;;;1.90;99.90;;;;;;4943771;29;20066;-57
2021/12/12 01:27:18;;;;;;;16.10;6.57;;;1.90;99.90;;;;;;4952317;29;20039;-58
2021/12/12 01:29:44;;;;;;;21.40;7.05;;;1.90;99.90;;;;;;4951709;29;20031;-57
2021/12/12 01:32:20;;;;;;;24.33;8.15;;;1.80;99.90;;;;;;4952279;29;20520;-57
2021/12/12 01:34:50;;;;;;;13.85;6.07;;;1.90;99.90;;;;;;4951505;28;20037;-57
2021/12/12 01:37:36;;;;;;;15.02;5.65;;;1.80;99.90;;;;;;4952083;29;20405;-57
2021/12/12 01:40:10;;;;;;;19.00;6.43;;;1.80;99.90;;;;;;4951086;29;20096;-56
2021/12/12 01:42:41;;;;;;;;;;;1.80;99.90;;;;;;4933618;29;20039;-53
2021/12/12 01:45:17;;;;;;;16.27;5.22;;;1.80;99.90;;;;;;4949679;28;19918;-57
2021/12/12 01:48:03;;;;;;;14.35;5.97;;;1.80;99.90;;;;;;4950465;29;20127;-58
2021/12/12 01:50:36;;;;;;;13.02;6.15;;;1.80;99.90;;;;;;4948073;29;20028;-58
2021/12/12 01:53:05;;;;;;;13.02;5.45;;;1.80;99.90;;;;;;4951117;28;20019;-57
2021/12/12 01:55:58;;;;;;;17.40;5.75;;;1.80;99.90;;;;;;4951865;29;20039;-57
2021/12/12 01:58:27;;;;;;;13.82;5.63;;;1.90;99.90;;;;;;4894458;28;20047;-58
2021/12/12 02:01:29;;;;;;;22.77;6.07;;;1.80;99.90;;;;;;4949371;28;20106;-57
2021/12/12 02:04:09;;;;;;;16.20;5.90;;;1.80;99.90;;;;;;4943821;28;20043;-58
2021/12/12 02:06:35;;;;;;;18.98;5.40;;;1.80;99.90;;;;;;4941543;29;20051;-58
2021/12/12 02:09:03;;;;;;;22.38;5.45;;;1.80;99.90;;;;;;4948262;29;20519;-57
2021/12/12 02:11:32;;;;;;;15.75;5.47;;;1.80;99.90;;;;;;4951990;28;20024;-58
2021/12/12 02:14:07;;;;;;;15.05;6.10;;;1.90;99.90;;;;;;4954950;29;20059;-58
2021/12/12 02:16:33;;;;;;;15.40;5.15;;;1.90;99.90;;;;;;4955128;29;20070;-56
2021/12/12 02:19:00;;;;;;;13.65;5.68;;;1.90;99.90;;;;;;4954568;29;20031;-58
2021/12/12 02:21:36;;;;;;;19.35;5.53;;;2.00;99.90;;;;;;4955262;29;20394;-59
2021/12/12 02:35:03;;;;;;;18.85;5.30;;;2.00;99.90;;;;;;4954680;29;20032;-58
2021/12/12 02:35:36;;;;;;;15.38;5.28;;;2.20;99.90;;;;;;4953507;28;20143;-57
2021/12/12 02:38:03;;;;;;;13.90;4.85;;;2.20;99.90;;;;;;4945658;28;20765;-58
2021/12/12 02:40:39;;;;;;;13.02;4.45;;;2.20;99.90;;;;;;4941943;29;20073;-56
2021/12/12 02:43:06;;;;;;;13.90;5.90;;;2.20;99.90;;;;;;4941507;28;20026;-57
2021/12/12 02:45:33;;;;;;;16.73;5.70;;;2.30;99.90;;;;;;4946827;29;20031;-54
2021/12/12 02:48:02;;;;;;;12.85;5.18;;;2.30;99.90;;;;;;4938714;29;20380;-58
2021/12/12 02:50:34;;;;;;;14.68;5.82;;;2.30;99.90;;;;;;4942724;29;20052;-56
2021/12/12 02:53:09;;;;;;;21.75;4.68;;;2.30;99.90;;;;;;4935079;29;20720;-58
2021/12/12 02:55:39;;;;;;;9.85;5.07;;;2.40;99.90;;;;;;4940290;29;20532;-57
2021/12/12 02:58:06;;;;;;;13.98;5.28;;;2.30;99.90;;;;;;4938467;29;20027;-55
2021/12/12 03:00:38;;;;;;;20.23;4.85;;;2.30;99.90;;;;;;4942894;29;20034;-57
2021/12/12 03:03:04;;;;;;;19.15;4.70;;;2.40;99.90;;;;;;4937195;29;20027;-52
2021/12/12 03:05:36;;;;;;;10.43;5.18;;;2.40;99.90;;;;;;4939319;29;20047;-54
2021/12/12 03:08:02;;;;;;;16.20;5.35;;;2.40;99.90;;;;;;4951625;29;20516;-57
2021/12/12 03:10:34;;;;;;;14.13;4.65;;;2.40;99.90;;;;;;4951432;29;20441;-55
2021/12/12 03:13:00;;;;;;;14.73;4.60;;;2.40;99.90;;;;;;4948980;29;20054;-54
2021/12/12 03:15:30;;;;;;;16.42;5.28;;;2.50;99.90;;;;;;4945551;29;20051;-53
2021/12/12 03:17:59;;;;;;;14.70;4.95;;;2.50;99.90;;;;;;4954076;28;20023;-57
2021/12/12 03:20:31;;;;;;;16.20;4.93;;;2.50;99.90;;;;;;4945079;29;20071;-57
2021/12/12 03:23:02;;;;;;;12.52;4.90;;;2.50;99.90;;;;;;4934966;29;20075;-57
2021/12/12 03:25:31;;;;;;;12.55;4.93;;;2.60;99.90;;;;;;4954534;29;20496;-58
2021/12/12 03:27:56;;;;;;;16.70;4.78;;;2.50;99.90;;;;;;4954359;29;20628;-57
2021/12/12 03:30:22;;;;;;;13.90;5.28;;;2.60;99.90;;;;;;4953776;29;20027;-58
2021/12/12 03:32:48;;;;;;;12.82;5.40;;;2.60;99.90;;;;;;4953501;29;20050;-57
2021/12/12 03:35:14;;;;;;;14.02;4.70;;;2.60;99.90;;;;;;4952762;29;20050;-57
2021/12/12 03:37:41;;;;;;;10.55;4.57;;;2.60;99.90;;;;;;4954278;29;20480;-56
2021/12/12 03:40:23;;;;;;;11.77;4.95;;;2.60;99.90;;;;;;4953235;29;20035;-57
2021/12/12 03:42:52;;;;;;;16.67;5.05;;;2.70;99.90;;;;;;4953615;29;20027;-58
2021/12/12 03:45:19;;;;;;;16.48;5.28;;;2.60;99.90;;;;;;4953302;28;20067;-56
2021/12/12 03:47:51;;;;;;;14.35;5.18;;;2.70;99.90;;;;;;4953632;29;20082;-57
2021/12/12 03:50:21;;;;;;;14.98;5.22;;;2.70;99.90;;;;;;4953714;29;20035;-57
2021/12/12 03:52:47;;;;;;;13.05;5.55;;;2.70;99.90;;;;;;4940351;29;20039;-52
2021/12/12 03:55:14;;;;;;;13.32;5.35;;;2.70;99.90;;;;;;4953266;29;20050;-57
2021/12/12 03:57:41;;;;;;;15.32;5.15;;;2.70;99.90;;;;;;4919474;28;20071;-55
2021/12/12 04:00:12;;;;;;;11.20;4.60;;;2.70;99.90;;;;;;4952614;29;20117;-56
2021/12/12 04:02:37;;;;;;;12.70;5.00;;;2.70;99.90;;;;;;4952815;29;20117;-56
2021/12/12 04:05:04;;;;;;;18.15;5.30;;;2.70;99.90;;;;;;4953021;28;20454;-57
2021/12/12 04:07:29;;;;;;;16.60;5.20;;;2.70;99.90;;;;;;4953448;29;20034;-56
2021/12/12 04:09:56;;;;;;;15.63;5.03;;;2.70;99.90;;;;;;4939368;29;20074;-59
2021/12/12 04:12:23;;;;;;;18.20;4.60;;;2.80;99.90;;;;;;4951247;29;20454;-56
2021/12/12 04:14:51;;;;;;;13.70;5.68;;;2.80;99.90;;;;;;4953345;28;20113;-57
2021/12/12 04:17:20;;;;;;;13.77;5.32;;;2.80;99.90;;;;;;4953335;29;20031;-53
2021/12/12 04:19:48;;;;;;;12.35;5.03;;;2.80;99.90;;;;;;4952905;29;20027;-57
2021/12/12 04:22:15;;;;;;;13.27;5.47;;;2.80;99.90;;;;;;4953814;29;20030;-58
2021/12/12 04:24:44;;;;;;;11.88;4.25;;;2.90;99.90;;;;;;4952623;29;20023;-58
2021/12/12 04:27:11;;;;;;;24.25;5.65;;;2.90;99.90;;;;;;4953501;29;20110;-57
2021/12/12 04:29:40;;;;;;;15.70;5.72;;;2.90;99.90;;;;;;4953080;29;20400;-58
2021/12/12 04:32:18;;;;;;;25.75;6.78;;;2.90;99.90;;;;;;4936355;29;20416;-59
2021/12/12 04:34:51;;;;;;;15.25;5.40;;;2.90;99.90;;;;;;4946412;28;20082;-58
2021/12/12 04:37:18;;;;;;;14.07;5.43;;;2.90;99.90;;;;;;4953171;29;20110;-58
2021/12/12 04:39:48;;;;;;;20.25;6.68;;;3.00;99.90;;;;;;4952514;29;20031;-57
2021/12/12 04:42:27;;;;;;;18.83;6.47;;;3.00;99.90;;;;;;4953068;29;20051;-58
2021/12/12 04:45:05;;;;;;;19.88;6.32;;;2.90;99.90;;;;;;4950965;29;20035;-49
2021/12/12 04:50:47;;;;;;;24.67;8.52;;;3.00;99.90;;;;;;4947611;29;20098;-57
2021/12/12 04:53:18;;;;;;;72.13;28.90;;;3.00;99.90;;;;;;4951913;28;20035;-57
2021/12/12 04:56:10;;;;;;;61.75;23.25;;;3.00;99.90;;;;;;4952579;29;20031;-58
2021/12/12 04:59:05;;;;;;;36.65;16.67;;;3.00;99.90;;;;;;4945248;29;20635;-57
2021/12/12 05:01:44;;;;;;;39.13;9.15;;;3.10;99.90;;;;;;4904768;28;20082;-55
2021/12/12 05:04:35;;;;;;;25.70;8.80;;;3.10;99.90;;;;;;4950658;29;20027;-55
2021/12/12 05:07:15;;;;;;;89.15;22.30;;;3.20;99.90;;;;;;4944355;29;20031;-57
2021/12/12 05:10:13;;;;;;;35.75;13.15;;;3.20;99.90;;;;;;4952076;29;20031;-61
2021/12/12 05:12:46;;;;;;;32.53;9.70;;;3.20;99.90;;;;;;4937675;29;20047;-56
2021/12/12 05:15:24;;;;;;;29.20;6.53;;;3.20;99.90;;;;;;4950953;29;20414;-55
2021/12/12 05:17:56;;;;;;;17.83;6.82;;;3.20;99.90;;;;;;4951976;29;20027;-54
2021/12/12 05:20:28;;;;;;;27.00;8.13;;;3.20;99.90;;;;;;4951919;29;20035;-56
2021/12/12 05:22:56;;;;;;;20.65;6.95;;;3.20;99.90;;;;;;4952354;29;20034;-51
2021/12/12 05:25:30;;;;;;;22.15;6.78;;;3.20;99.90;;;;;;4951865;28;20036;-55
2021/12/12 05:27:58;;;;;;;19.48;6.50;;;3.20;99.90;;;;;;4952178;29;20425;-59
2021/12/12 05:30:32;;;;;;;22.60;7.15;;;3.30;99.90;;;;;;4949878;29;20039;-57
2021/12/12 05:33:00;;;;;;;17.15;6.40;;;3.30;99.90;;;;;;4951747;29;20031;-58
2021/12/12 05:35:30;;;;;;;19.63;6.95;;;3.30;99.90;;;;;;4951806;29;20110;-57
2021/12/12 05:37:58;;;;;;;36.30;8.48;;;3.30;99.90;;;;;;4951854;29;20026;-59
2021/12/12 05:40:26;;;;;;;42.40;9.98;;;3.30;99.90;;;;;;4952196;29;20485;-56
2021/12/12 05:42:54;;;;;;;19.25;6.50;;;3.40;99.90;;;;;;4951645;29;20512;-53
2021/12/12 05:45:20;;;;;;;23.85;8.48;;;3.40;99.90;;;;;;4951702;29;20031;-57
2021/12/12 05:47:47;;;;;;;20.38;6.70;;;3.40;99.90;;;;;;4951285;28;20787;-57
2021/12/12 05:50:15;;;;;;;63.80;19.10;;;3.40;99.90;;;;;;4951436;29;20028;-57
2021/12/12 05:52:46;;;;;;;31.52;11.13;;;3.40;99.90;;;;;;4952238;29;20089;-54
2021/12/12 05:55:15;;;;;;;30.50;9.32;;;3.40;99.90;;;;;;4951526;28;20086;-56
2021/12/12 05:57:44;;;;;;;23.45;7.07;;;3.50;99.90;;;;;;4951698;29;20034;-56
2021/12/12 06:00:14;;;;;;;28.27;10.70;;;3.50;99.90;;;;;;4951170;29;20117;-59
2021/12/12 06:02:41;;;;;;;29.58;10.40;;;3.50;99.90;;;;;;4935800;29;20058;-59
2021/12/12 06:05:08;;;;;;;22.08;7.60;;;3.50;99.90;;;;;;4950425;28;20042;-57
2021/12/12 06:07:35;;;;;;;22.70;7.25;;;3.50;99.90;;;;;;4947884;29;20079;-58
2021/12/12 06:10:07;;;;;;;22.38;7.50;;;3.50;99.90;;;;;;4944593;28;20035;-59
2021/12/12 06:12:34;;;;;;;23.17;7.28;;;3.50;99.90;;;;;;4948415;29;20035;-56
2021/12/12 06:15:02;;;;;;;17.50;7.50;;;3.50;99.90;;;;;;4948063;28;20141;-57
2021/12/12 06:17:28;;;;;;;20.02;7.30;;;3.50;99.90;;;;;;4949653;29;20027;-57
2021/12/12 06:19:56;;;;;;;16.73;6.80;;;3.50;99.90;;;;;;4949094;29;20035;-58
2021/12/12 06:22:22;;;;;;;15.05;7.10;;;3.50;99.90;;;;;;4949395;29;20027;-58
2021/12/12 06:24:49;;;;;;;18.02;7.20;;;3.50;99.90;;;;;;4948406;28;20030;-57
2021/12/12 06:27:20;;;;;;;24.77;7.97;;;3.50;99.90;;;;;;4948471;29;20039;-58
2021/12/12 06:29:48;;;;;;;13.32;6.72;;;3.50;99.90;;;;;;4948543;29;20035;-58
2021/12/12 06:32:14;;;;;;;16.75;7.70;;;3.50;99.90;;;;;;4948728;29;20028;-57
2021/12/12 06:34:41;;;;;;;26.92;9.32;;;3.50;99.90;;;;;;4947343;28;20039;-58
2021/12/12 06:37:06;;;;;;;22.08;8.73;;;3.50;99.90;;;;;;4949579;29;20106;-56
2021/12/12 06:39:34;;;;;;;18.20;9.02;;;3.50;99.90;;;;;;4948261;29;20479;-58
2021/12/12 06:42:02;;;;;;;20.50;8.35;;;3.50;99.90;;;;;;4949667;29;20054;-58
2021/12/12 06:44:28;;;;;;;18.40;8.27;;;3.50;99.90;;;;;;4947465;29;20038;-58
2021/12/12 06:46:53;;;;;;;24.63;9.18;;;3.60;99.90;;;;;;4948221;29;20058;-53
2021/12/12 06:49:20;;;;;;;17.52;7.20;;;3.50;99.90;;;;;;4947713;29;20516;-55
2021/12/12 06:51:54;;;;;;;19.75;8.65;;;3.50;99.90;;;;;;4948905;29;20783;-57
2021/12/12 06:54:22;;;;;;;19.17;8.10;;;3.60;99.90;;;;;;4948090;29;20422;-58
2021/12/12 06:56:51;;;;;;;15.60;8.35;;;3.60;99.90;;;;;;4949380;29;20425;-57
2021/12/12 06:59:17;;;;;;;23.77;8.45;;;3.60;99.90;;;;;;4949767;28;20486;-57
2021/12/12 07:01:43;;;;;;;18.85;7.80;;;3.60;99.90;;;;;;4937046;28;20476;-60
2021/12/12 07:04:13;;;;;;;27.48;8.95;;;3.70;99.90;;;;;;4951211;28;20027;-58
2021/12/12 07:06:39;;;;;;;22.50;8.18;;;3.70;99.90;;;;;;4952281;29;20102;-58
2021/12/12 07:09:08;;;;;;;27.20;9.52;;;3.70;99.90;;;;;;4952009;29;20067;-59
2021/12/12 07:11:36;;;;;;;20.95;7.82;;;3.70;99.90;;;;;;4953024;29;20023;-57
2021/12/12 07:14:02;;;;;;;22.50;8.23;;;3.70;99.90;;;;;;4951517;29;20504;-57
2021/12/12 07:16:28;;;;;;;24.75;8.63;;;3.70;99.90;;;;;;4953204;29;20063;-57
2021/12/12 07:18:55;;;;;;;23.40;8.32;;;3.70;99.90;;;;;;4950151;29;20055;-54
2021/12/12 07:21:22;;;;;;;20.83;8.35;;;3.70;99.90;;;;;;4952907;29;20019;-58
2021/12/12 07:23:49;;;;;;;23.08;10.05;;;3.80;99.90;;;;;;4949831;28;20058;-56
2021/12/12 07:26:16;;;;;;;18.38;8.82;;;3.70;99.90;;;;;;4954720;29;20030;-56
2021/12/12 07:28:43;;;;;;;23.60;8.32;;;3.80;99.90;;;;;;4953628;29;20031;-59
2021/12/12 07:31:18;;;;;;;17.65;7.97;;;3.80;99.90;;;;;;4953976;29;20078;-58
2021/12/12 07:33:46;;;;;;;22.33;8.27;;;3.80;99.90;;;;;;4953391;28;20039;-58
2021/12/12 07:36:12;;;;;;;30.50;8.57;;;3.90;99.90;;;;;;4954555;29;20043;-56
2021/12/12 07:38:42;;;;;;;17.08;7.20;;;3.90;99.90;;;;;;4953765;29;20036;-58
2021/12/12 07:41:08;;;;;;;14.50;6.85;;;3.90;99.90;;;;;;4954145;29;20422;-58
2021/12/12 07:43:34;;;;;;;17.52;7.68;;;3.90;99.90;;;;;;4952508;28;20035;-58
2021/12/12 07:46:01;;;;;;;20.92;7.65;;;4.00;99.90;;;;;;4951899;29;20034;-58
2021/12/12 07:48:26;;;;;;;20.65;9.43;;;4.00;99.90;;;;;;4949946;28;20701;-58
2021/12/12 07:50:53;;;;;;;24.98;10.75;;;4.00;99.90;;;;;;4950778;29;20027;-58
2021/12/12 07:53:23;;;;;;;27.73;10.93;;;4.00;99.90;;;;;;4951483;29;20019;-54
2021/12/12 07:55:48;;;;;;;30.17;12.02;;;4.00;99.90;;;;;;4952185;29;20034;-57
2021/12/12 07:58:16;;;;;;;30.13;11.10;;;4.10;99.90;;;;;;4951327;29;20027;-53
2021/12/12 08:00:46;;;;;;;23.80;12.60;;;4.10;99.90;;;;;;4951807;29;20027;-58
2021/12/12 08:03:15;;;;;;;21.17;7.63;;;4.10;99.90;;;;;;4930894;28;20122;-57
2021/12/12 08:05:42;;;;;;;26.60;7.20;;;4.10;99.90;;;;;;4952280;29;20402;-58
2021/12/12 08:08:11;;;;;;;31.73;12.90;;;4.10;99.90;;;;;;4949533;29;20393;-55
2021/12/12 08:10:39;;;;;;;33.53;9.18;;;4.10;99.90;;;;;;4934571;29;20074;-57
2021/12/12 08:13:06;;;;;;;31.75;9.98;;;4.10;99.90;;;;;;4951437;29;20114;-57
2021/12/12 08:15:32;;;;;;;31.02;8.60;;;4.20;99.90;;;;;;4951847;29;20122;-57
2021/12/12 08:18:01;;;;;;;34.38;14.38;;;4.20;99.90;;;;;;4951060;29;20035;-59
2021/12/12 08:20:29;;;;;;;45.60;13.07;;;4.20;99.90;;;;;;4952121;29;20098;-56
2021/12/12 08:22:55;;;;;;;29.88;9.38;;;4.20;99.90;;;;;;4950845;29;20513;-56
2021/12/12 08:25:22;;;;;;;27.38;12.05;;;4.30;99.90;;;;;;4950638;28;20034;-58
2021/12/12 08:27:48;;;;;;;14.82;7.60;;;4.30;99.90;;;;;;4950727;29;20027;-58
2021/12/12 08:30:16;;;;;;;16.80;6.70;;;4.30;99.90;;;;;;4950751;29;20114;-58
2021/12/12 08:32:46;;;;;;;20.60;6.97;;;4.30;99.90;;;;;;4949753;29;20425;-57
2021/12/12 08:35:13;;;;;;;24.23;10.93;;;4.30;99.90;;;;;;4949966;28;20662;-57
2021/12/12 08:37:40;;;;;;;24.85;13.45;;;4.40;99.90;;;;;;4950348;29;20507;-58
2021/12/12 08:40:06;;;;;;;20.90;10.13;;;4.40;99.90;;;;;;4951060;29;20054;-60
2021/12/12 08:42:33;;;;;;;13.05;7.13;;;4.40;99.90;;;;;;4951454;29;20086;-59
2021/12/12 08:44:59;;;;;;;29.10;9.30;;;4.40;99.90;;;;;;4950421;29;20035;-59
2021/12/12 08:47:26;;;;;;;19.10;7.50;;;4.40;99.90;;;;;;4950966;29;20027;-58
2021/12/12 08:49:52;;;;;;;18.40;10.45;;;4.50;99.90;;;;;;4951082;29;20114;-57
2021/12/12 08:52:29;;;;;;;19.13;8.30;;;4.50;99.90;;;;;;4949609;29;20504;-58
2021/12/12 08:54:55;;;;;;;18.38;7.80;;;4.50;99.90;;;;;;4947706;29;20031;-52
2021/12/12 08:58:03;;;;;;;21.42;8.18;;;4.60;99.90;;;;;;4950802;29;20126;-58
2021/12/12 09:00:21;;;;;;;15.57;7.20;;;4.60;99.90;;;;;;4946953;29;20378;-59
2021/12/12 09:02:49;;;;;;;15.40;8.10;;;4.60;99.90;;;;;;4933417;29;20050;-57
2021/12/12 09:05:18;;;;;;;19.88;6.25;;;4.70;99.90;;;;;;4948590;28;20023;-57
2021/12/12 09:07:47;;;;;;;16.48;7.13;;;4.70;99.90;;;;;;4950058;29;20497;-55
2021/12/12 09:10:26;;;;;;;15.95;9.10;;;4.70;99.90;;;;;;4949640;29;20032;-55
2021/12/12 09:13:01;;;;;;;51.25;29.52;;;4.70;99.90;;;;;;4950124;29;20432;-57
2021/12/12 09:15:42;;;;;;;41.88;22.63;;;4.80;99.90;;;;;;4950444;29;20050;-58
2021/12/12 09:18:24;;;;;;;30.10;19.00;;;4.80;99.90;;;;;;4950530;29;20689;-59
2021/12/12 09:20:56;;;;;;;44.28;21.58;;;4.80;99.90;;;;;;4948199;28;20035;-59
2021/12/12 09:23:32;;;;;;;22.50;13.15;;;4.90;99.90;;;;;;4949370;29;20031;-60
2021/12/12 09:26:10;;;;;;;27.77;12.75;;;4.90;99.90;;;;;;4949401;29;20492;-59
2021/12/12 09:28:50;;;;;;;23.08;9.10;;;4.90;99.90;;;;;;4948399;29;20046;-56
2021/12/12 09:31:42;;;;;;;13.50;6.40;;;4.90;99.90;;;;;;4950086;29;20031;-58
2021/12/12 09:34:14;;;;;;;10.45;5.72;;;5.00;99.90;;;;;;4949240;28;20043;-56
2021/12/12 09:36:59;;;;;;;18.33;5.25;;;5.00;99.90;;;;;;4949915;29;20184;-56
2021/12/12 09:39:27;;;;;;;10.57;4.78;;;5.00;99.90;;;;;;4948118;29;20047;-59
2021/12/12 09:42:31;;;;;;;10.93;5.20;;;5.10;99.90;;;;;;4950149;29;20034;-58
2021/12/12 09:45:02;;;;;;;10.68;3.72;;;5.10;99.90;;;;;;4929521;29;20059;-53
2021/12/12 09:48:26;;;;;;;8.30;3.92;;;5.10;99.90;;;;;;4950420;29;20122;-55
2021/12/12 09:51:16;;;;;;;8.93;5.38;;;5.20;99.90;;;;;;4948506;29;20039;-59
2021/12/12 09:54:00;;;;;;;12.82;5.18;;;5.20;99.90;;;;;;4949123;28;20400;-56
2021/12/12 09:57:02;;;;;;;26.57;10.70;;;5.20;99.90;;;;;;4943900;29;20066;-58
2021/12/12 09:59:43;;;;;;;11.93;6.93;;;5.20;99.90;;;;;;4947212;29;20705;-56
2021/12/12 10:02:26;;;;;;;11.02;4.10;;;5.30;99.90;;;;;;4931727;29;20126;-54
2021/12/12 10:04:51;;;;;;;12.73;5.78;;;5.30;99.90;;;;;;4947725;28;20035;-55
2021/12/12 10:07:30;;;;;;;13.80;4.53;;;5.30;99.90;;;;;;4950749;29;20031;-58
2021/12/12 10:10:00;;;;;;;14.30;5.25;;;5.40;99.90;;;;;;4950619;29;20045;-57
2021/12/12 10:12:33;;;;;;;9.50;4.18;;;5.40;99.90;;;;;;4951111;29;20039;-58
2021/12/12 10:14:59;;;;;;;7.15;3.95;;;5.50;99.90;;;;;;4950390;29;20540;-57
2021/12/12 10:17:45;;;;;;;8.98;3.63;;;5.50;99.90;;;;;;4950408;29;20031;-59
2021/12/12 10:20:19;;;;;;;8.00;3.58;;;5.60;99.90;;;;;;4950146;29;20063;-57
2021/12/12 10:22:48;;;;;;;;;;;5.60;99.90;;;;;;4948656;29;20548;-58
2021/12/12 10:25:18;;;;;;;8.65;4.78;;;5.70;99.90;;;;;;4950809;28;19911;-58
2021/12/12 10:27:43;;;;;;;7.40;4.22;;;5.70;99.90;;;;;;4942803;29;20050;-57
2021/12/12 10:30:12;;;;;;;8.07;4.60;;;5.70;99.90;;;;;;4950443;29;20062;-58
2021/12/12 10:33:09;;;;;;;6.10;3.80;;;5.80;99.90;;;;;;4949916;28;20462;-58
2021/12/12 10:35:50;;;;;;;9.50;3.95;;;5.80;99.90;;;;;;4953974;29;20042;-58
2021/12/12 10:38:52;;;;;;;6.47;3.35;;;5.80;99.90;;;;;;4953350;29;20042;-59
2021/12/12 10:41:24;;;;;;;8.45;4.70;;;5.90;99.90;;;;;;4953787;29;20089;-56
2021/12/12 10:44:21;;;;;;;6.47;3.63;;;5.90;99.90;;;;;;4909141;28;1306918;-57
2021/12/12 10:46:56;;;;;;;7.45;4.13;;;5.80;99.90;;;;;;4954874;29;20035;-57
2021/12/12 10:49:58;;;;;;;9.23;4.75;;;5.80;99.90;;;;;;4952360;29;20442;-56
2021/12/12 10:52:38;;;;;;;10.57;3.83;;;5.90;99.90;;;;;;4953026;29;20405;-59
2021/12/12 10:55:21;;;;;;;8.90;4.32;;;5.90;99.90;;;;;;4954050;28;20451;-57
2021/12/12 10:57:56;;;;;;;9.52;4.18;;;5.90;99.90;;;;;;4952444;28;20031;-56
2021/12/12 11:00:30;;;;;;;12.80;5.85;;;5.90;99.90;;;;;;4953274;29;20031;-58
2021/12/12 11:03:08;;;;;;;16.90;6.18;;;5.90;99.90;;;;;;4929785;28;20577;-54
2021/12/12 11:05:44;;;;;;;7.13;4.45;;;6.00;99.90;;;;;;4952842;29;20028;-56
2021/12/12 11:08:37;;;;;;;8.35;4.43;;;6.00;99.90;;;;;;4954635;29;20035;-58
2021/12/12 11:11:14;;;;;;;10.13;4.72;;;6.00;99.90;;;;;;4954459;29;20066;-58
2021/12/12 11:13:47;;;;;;;21.55;8.13;;;6.10;99.90;;;;;;4953597;28;20059;-58
2021/12/12 11:16:28;;;;;;;8.52;5.18;;;6.00;99.90;;;;;;4955191;29;20071;-58
2021/12/12 11:19:05;;;;;;;15.10;6.45;;;6.10;99.90;;;;;;4954155;29;20038;-57
2021/12/12 11:21:35;;;;;;;8.80;5.15;;;6.10;99.90;;;;;;4954779;29;20445;-58
2021/12/12 11:24:07;;;;;;;10.15;5.57;;;6.10;99.90;;;;;;4954012;28;20110;-57
2021/12/12 11:26:34;;;;;;;14.25;7.90;;;6.10;99.90;;;;;;4954622;29;20050;-58
2021/12/12 11:29:05;;;;;;;15.13;7.90;;;6.20;99.90;;;;;;4953458;29;20474;-57
2021/12/12 11:31:37;;;;;;;12.05;6.53;;;6.20;99.90;;;;;;4954691;29;20034;-59
2021/12/12 11:34:06;;;;;;;8.52;5.35;;;6.20;99.90;;;;;;4949708;29;20094;-58
2021/12/12 11:36:38;;;;;;;7.53;4.05;;;6.30;99.90;;;;;;4954586;29;20031;-56
2021/12/12 11:39:27;;;;;;;4.55;3.45;;;6.30;99.90;;;;;;4953648;29;20035;-59
2021/12/12 11:42:14;;;;;;;8.90;4.13;;;6.40;99.90;;;;;;4954056;29;20031;-59
2021/12/12 11:44:59;;;;;;;9.60;4.25;;;6.40;99.90;;;;;;4951478;28;20071;-56
2021/12/12 11:47:37;;;;;;;8.88;4.75;;;6.40;99.90;;;;;;4951679;29;20031;-58
2021/12/12 11:50:02;;;;;;;6.75;3.63;;;6.40;99.90;;;;;;4952067;29;20031;-58
2021/12/12 11:52:47;;;;;;;7.70;3.60;;;6.50;99.90;;;;;;4952845;29;20425;-59
2021/12/12 11:55:24;;;;;;;10.25;4.25;;;6.50;99.90;;;;;;4937246;29;20497;-57
2021/12/12 11:58:04;;;;;;;9.90;4.55;;;6.50;99.90;;;;;;4951926;29;20481;-57
2021/12/12 12:00:40;;;;;;;9.15;4.57;;;6.60;99.90;;;;;;4953314;29;20031;-58
2021/12/12 12:03:12;;;;;;;8.05;3.83;;;6.60;99.90;;;;;;4931367;29;20047;-53
2021/12/12 12:06:02;;;;;;;13.80;5.65;;;6.60;99.90;;;;;;4951068;29;20050;-54
2021/12/12 12:08:55;;;;;;;12.52;5.07;;;6.60;99.90;;;;;;4952000;29;20038;-55
2021/12/12 12:11:26;;;;;;;18.17;7.20;;;6.60;99.90;;;;;;4952033;28;20223;-58
2021/12/12 12:13:55;;;;;;;12.18;6.50;;;6.60;99.90;;;;;;4952005;28;20110;-56
2021/12/12 12:16:39;;;;;;;7.90;5.05;;;6.60;99.90;;;;;;4953010;29;20098;-57
2021/12/12 12:19:11;;;;;;;8.73;5.57;;;6.60;99.90;;;;;;4949820;29;20114;-58
2021/12/12 12:22:03;;;;;;;10.68;5.97;;;6.60;99.90;;;;;;4953270;28;20448;-57
2021/12/12 12:24:40;;;;;;;8.18;5.15;;;6.60;99.90;;;;;;4945624;29;20031;-57
2021/12/12 12:27:23;;;;;;;6.05;3.80;;;6.60;99.90;;;;;;4953204;29;20397;-59
2021/12/12 12:30:01;;;;;;;6.15;3.47;;;6.50;99.90;;;;;;4956751;28;20029;-55
2021/12/12 12:33:05;;;;;;;11.25;4.72;;;6.50;99.90;;;;;;4950882;28;20025;-58
2021/12/12 12:36:12;;;;;;;6.28;3.78;;;6.50;99.90;;;;;;4947905;29;20027;-58
2021/12/12 12:39:25;;;;;;;8.25;4.43;;;6.50;99.90;;;;;;4951624;29;20508;-59
2021/12/12 12:42:28;;;;;;;20.75;9.27;;;6.60;99.90;;;;;;4949876;29;20043;-59
2021/12/12 12:46:04;;;;;;;9.02;5.43;;;6.50;99.90;;;;;;4950393;28;20450;-58
2021/12/12 12:48:45;;;;;;;6.65;3.72;;;6.50;99.90;;;;;;4873317;29;20045;-57
2021/12/12 12:51:22;;;;;;;7.32;3.78;;;6.50;99.90;;;;;;4942131;29;20027;-58
2021/12/12 12:53:54;;;;;;;14.50;6.65;;;6.50;99.90;;;;;;4944030;28;20059;-58
2021/12/12 12:56:57;;;;;;;10.98;4.97;;;6.50;99.90;;;;;;4961080;28;20037;-58
2021/12/12 12:59:51;;;;;;;13.45;6.65;;;6.60;99.90;;;;;;4956320;28;20043;-61
2021/12/12 13:02:20;;;;;;;8.45;5.30;;;6.50;99.90;;;;;;4947712;29;20032;-58
2021/12/12 13:05:06;;;;;;;10.98;6.25;;;6.50;99.90;;;;;;4923787;28;20080;-58
2021/12/12 13:07:41;;;;;;;23.65;9.48;;;6.50;99.90;;;;;;4944225;29;20085;-59
2021/12/12 13:10:15;;;;;;;27.20;11.60;;;6.50;99.90;;;;;;4951837;28;20532;-58
2021/12/12 13:12:59;;;;;;;15.15;6.82;;;6.50;99.90;;;;;;4949639;29;20077;-58
2021/12/12 13:15:48;;;;;;;10.93;3.80;;;6.50;99.90;;;;;;4949097;28;20059;-58
2021/12/12 13:18:52;;;;;;;12.32;4.60;;;6.50;99.90;;;;;;4941746;29;20032;-59
2021/12/12 13:21:47;;;;;;;13.57;4.38;;;6.50;99.90;;;;;;4944711;29;20034;-58
2021/12/12 13:24:22;;;;;;;11.50;6.85;;;6.50;99.90;;;;;;4950073;29;20031;-58
2021/12/12 13:27:22;;;;;;;12.57;6.00;;;6.50;99.90;;;;;;4952796;28;20019;-58
2021/12/12 13:30:00;;;;;;;9.70;4.63;;;6.50;99.90;;;;;;4921058;28;20085;-57
2021/12/12 13:32:36;;;;;;;10.23;3.45;;;6.50;99.90;;;;;;4941297;28;20429;-58
2021/12/12 13:35:15;;;;;;;7.55;3.80;;;6.50;99.90;;;;;;4970830;28;20031;-56